Time;durP1;ratioP1;P1;durP2;ratioP2;P2;SDS_P1;SDS_P2;PMS_P1;PMS_P2;Temp;Humidity;BMP_temperature;BMP_pressure;BME280_temperature;BME280_humidity;BME280_pressure;Samples;Min_cycle;Max_cycle;Signal;HPM_P1;HPM_P2
2022/04/17 00:00:09;;;;;;;3.88;2.22;;;10.90;46.90;;;;;;5135465;27;20066;-75
2022/04/17 00:02:35;;;;;;;5.35;2.55;;;10.90;46.90;;;;;;5135208;27;20031;-75
2022/04/17 00:05:01;;;;;;;4.50;2.70;;;10.80;46.70;;;;;;5116000;27;20019;-75
2022/04/17 00:07:28;;;;;;;5.22;2.55;;;10.80;46.80;;;;;;5117196;27;20398;-74
2022/04/17 00:09:54;;;;;;;4.68;2.40;;;10.70;46.80;;;;;;5135334;27;20155;-75
2022/04/17 00:12:23;;;;;;;4.95;2.70;;;10.70;47.00;;;;;;5116757;27;20122;-75
2022/04/17 00:14:49;;;;;;;3.90;2.58;;;10.70;47.20;;;;;;5116751;27;20454;-75
2022/04/17 00:17:15;;;;;;;4.38;2.80;;;10.60;47.10;;;;;;5135231;27;20015;-74
2022/04/17 00:19:41;;;;;;;7.50;2.15;;;10.60;47.10;;;;;;5135071;27;20032;-74
2022/04/17 00:22:07;;;;;;;3.60;2.47;;;10.50;47.20;;;;;;5134821;27;20029;-74
2022/04/17 00:24:33;;;;;;;6.65;3.13;;;10.40;47.00;;;;;;5134986;27;20130;-75
2022/04/17 00:27:00;;;;;;;7.25;2.40;;;10.40;47.00;;;;;;5135042;27;20026;-75
2022/04/17 00:29:29;;;;;;;6.05;2.70;;;10.30;46.90;;;;;;5116523;27;20035;-74
2022/04/17 00:31:58;;;;;;;3.25;2.20;;;10.20;46.90;;;;;;5116556;27;20455;-74
2022/04/17 00:34:26;;;;;;;2.97;2.20;;;10.10;46.90;;;;;;5134545;27;20080;-75
2022/04/17 00:36:52;;;;;;;3.53;2.22;;;10.00;46.90;;;;;;5116673;27;20058;-74
2022/04/17 00:39:18;;;;;;;2.70;1.88;;;9.90;47.10;;;;;;5134681;27;20114;-74
2022/04/17 00:41:46;;;;;;;3.72;2.35;;;9.80;47.10;;;;;;5134808;27;20065;-74
2022/04/17 00:44:13;;;;;;;3.80;1.92;;;9.70;47.20;;;;;;5134472;27;20288;-74
2022/04/17 00:46:40;;;;;;;3.20;2.00;;;9.60;47.30;;;;;;5116233;27;20277;-74
2022/04/17 00:49:09;;;;;;;3.38;2.20;;;9.50;47.60;;;;;;5116171;27;20034;-75
2022/04/17 00:51:36;;;;;;;4.10;2.58;;;9.40;47.90;;;;;;5116160;27;20023;-76
2022/04/17 00:54:07;;;;;;;3.35;2.60;;;9.30;48.20;;;;;;5134317;27;20047;-74
2022/04/17 00:56:34;;;;;;;4.75;2.65;;;9.20;48.50;;;;;;5134286;27;20532;-75
2022/04/17 00:59:04;;;;;;;3.90;2.30;;;9.10;48.90;;;;;;5116042;27;20110;-75
2022/04/17 01:01:33;;;;;;;3.67;2.40;;;9.10;48.90;;;;;;5115989;27;20034;-74
2022/04/17 01:03:59;;;;;;;4.43;3.00;;;9.00;49.00;;;;;;5134551;27;20374;-74
2022/04/17 01:06:26;;;;;;;4.32;2.47;;;9.00;49.80;;;;;;5134248;27;20023;-74
2022/04/17 01:08:52;;;;;;;2.83;2.20;;;8.90;49.20;;;;;;5134208;27;20034;-74
2022/04/17 01:11:18;;;;;;;4.05;2.28;;;8.90;49.30;;;;;;5133970;28;20028;-74
2022/04/17 01:13:44;;;;;;;5.13;3.10;;;8.80;49.30;;;;;;5134491;28;20029;-74
2022/04/17 01:16:11;;;;;;;4.68;2.65;;;8.70;49.40;;;;;;5117667;27;20030;-75
2022/04/17 01:19:03;;;;;;;5.00;2.72;;;8.70;49.70;;;;;;5138437;27;20482;-75
2022/04/17 01:21:30;;;;;;;3.72;2.47;;;8.60;50.00;;;;;;5120038;27;20027;-74
2022/04/17 01:26:56;;;;;;;5.20;2.80;;;8.50;50.00;;;;;;5138431;27;20071;-75
2022/04/17 01:29:23;;;;;;;4.88;2.67;;;8.40;50.30;;;;;;5138381;27;20023;-74
2022/04/17 01:31:49;;;;;;;4.28;2.80;;;8.40;50.40;;;;;;5138270;27;20027;-74
2022/04/17 01:34:16;;;;;;;4.95;2.88;;;8.40;50.60;;;;;;5119873;27;20053;-75
2022/04/17 01:36:45;;;;;;;3.45;1.90;;;8.30;50.70;;;;;;5138197;27;20027;-74
2022/04/17 01:39:12;;;;;;;4.53;2.50;;;8.30;50.70;;;;;;5138288;27;20061;-74
2022/04/17 01:41:38;;;;;;;4.97;2.60;;;8.20;50.80;;;;;;5138460;27;20055;-74
2022/04/17 01:44:06;;;;;;;3.83;2.50;;;8.20;50.70;;;;;;5137797;27;20506;-74
2022/04/17 01:46:33;;;;;;;5.90;2.63;;;8.10;50.80;;;;;;5138271;27;20055;-74
2022/04/17 01:48:59;;;;;;;4.18;2.38;;;8.10;50.80;;;;;;5137649;27;20474;-74
2022/04/17 01:51:26;;;;;;;5.35;2.72;;;8.00;50.70;;;;;;5137917;27;20023;-74
2022/04/17 01:53:52;;;;;;;3.85;2.60;;;8.00;50.80;;;;;;5119418;27;20467;-74
2022/04/17 01:56:18;;;;;;;3.42;2.28;;;7.90;50.90;;;;;;5137883;27;20031;-74
2022/04/17 01:58:44;;;;;;;3.65;2.45;;;7.90;51.00;;;;;;5137676;27;20031;-74
2022/04/17 02:01:10;;;;;;;3.85;2.50;;;7.90;51.10;;;;;;5137741;27;20093;-75
2022/04/17 02:03:36;;;;;;;8.15;3.00;;;7.80;51.20;;;;;;5137709;27;20451;-75
2022/04/17 02:06:02;;;;;;;4.45;2.80;;;7.80;51.40;;;;;;5137439;27;20038;-74
2022/04/17 02:08:28;;;;;;;3.92;2.63;;;7.80;51.40;;;;;;5119162;27;20019;-75
2022/04/17 02:10:55;;;;;;;4.15;2.75;;;7.70;51.40;;;;;;5137842;27;20169;-74
2022/04/17 02:13:23;;;;;;;4.63;2.72;;;7.70;51.50;;;;;;5119065;27;20489;-75
2022/04/17 02:15:53;;;;;;;4.07;2.50;;;7.70;51.70;;;;;;5118933;27;20023;-75
2022/04/17 02:18:20;;;;;;;3.63;2.63;;;7.60;51.60;;;;;;5119003;27;20156;-74
2022/04/17 02:20:47;;;;;;;5.00;3.00;;;7.60;51.50;;;;;;5118456;27;20117;-74
2022/04/17 02:23:13;;;;;;;3.10;2.20;;;7.60;51.50;;;;;;5137325;27;20019;-75
2022/04/17 02:25:40;;;;;;;3.55;2.22;;;7.60;51.60;;;;;;5118527;27;20073;-74
2022/04/17 02:28:06;;;;;;;5.45;2.13;;;7.50;51.50;;;;;;5117637;27;20026;-75
2022/04/17 02:30:32;;;;;;;3.53;2.38;;;7.40;51.50;;;;;;5118760;27;20027;-75
2022/04/17 02:32:58;;;;;;;3.25;2.28;;;7.40;51.40;;;;;;5118415;27;20114;-74
2022/04/17 02:35:24;;;;;;;4.50;2.35;;;7.40;51.40;;;;;;5118567;27;20019;-75
2022/04/17 02:37:51;;;;;;;4.13;2.70;;;7.40;51.50;;;;;;5137042;27;20110;-75
2022/04/17 02:40:17;;;;;;;4.63;2.25;;;7.40;51.70;;;;;;5136593;27;20086;-74
2022/04/17 02:42:43;;;;;;;5.50;2.70;;;7.30;51.70;;;;;;5118475;27;20520;-74
2022/04/17 02:45:09;;;;;;;3.97;2.28;;;7.30;51.70;;;;;;5136791;27;20019;-75
2022/04/17 02:47:45;;;;;;;6.60;2.95;;;7.30;51.70;;;;;;5137093;27;20047;-74
2022/04/17 02:50:13;;;;;;;4.40;2.60;;;7.20;51.70;;;;;;5118365;27;20030;-75
2022/04/17 02:52:39;;;;;;;5.30;2.78;;;7.20;51.90;;;;;;5118329;27;20530;-75
2022/04/17 02:55:06;;;;;;;4.45;2.78;;;7.10;52.00;;;;;;5118262;27;20030;-75
2022/04/17 02:57:32;;;;;;;3.05;2.40;;;7.10;52.20;;;;;;5118228;27;20027;-75
2022/04/17 02:59:59;;;;;;;4.43;2.42;;;7.10;52.20;;;;;;5136167;27;20106;-74
2022/04/17 03:07:55;;;;;;;5.57;3.50;;;7.00;52.10;;;;;;5136512;27;20385;-74
2022/04/17 03:10:21;;;;;;;5.50;3.03;;;7.00;52.10;;;;;;5117951;27;20027;-74
2022/04/17 03:12:48;;;;;;;3.72;2.72;;;7.00;52.10;;;;;;5117608;27;20034;-74
2022/04/17 03:15:14;;;;;;;3.97;2.67;;;6.90;52.10;;;;;;5117021;27;20076;-75
2022/04/17 03:17:39;;;;;;;3.97;2.28;;;6.90;52.10;;;;;;5130830;27;20019;-75
2022/04/17 03:20:07;;;;;;;2.88;2.13;;;6.90;52.10;;;;;;5135029;27;20027;-75
2022/04/17 03:22:33;;;;;;;3.80;2.13;;;6.90;52.10;;;;;;5109080;27;20035;-74
2022/04/17 03:25:04;;;;;;;5.22;2.50;;;6.90;52.10;;;;;;5131137;27;20024;-75
2022/04/17 03:27:30;;;;;;;4.00;2.88;;;6.80;52.30;;;;;;5115448;27;20042;-75
2022/04/17 03:29:57;;;;;;;5.47;2.80;;;6.80;52.40;;;;;;5110454;28;20126;-75
2022/04/17 03:32:23;;;;;;;5.28;2.80;;;6.80;52.70;;;;;;5112851;27;20035;-75
2022/04/17 03:34:49;;;;;;;3.67;2.33;;;6.70;52.90;;;;;;5133449;27;20098;-74
2022/04/17 03:37:15;;;;;;;5.22;3.20;;;6.70;53.20;;;;;;5134908;27;20050;-75
2022/04/17 03:39:42;;;;;;;3.80;2.72;;;6.70;53.50;;;;;;5117104;27;20051;-75
2022/04/17 03:42:08;;;;;;;6.15;3.17;;;6.70;53.60;;;;;;5132543;27;20030;-74
2022/04/17 03:44:34;;;;;;;4.43;3.00;;;6.70;53.70;;;;;;5127970;27;20458;-74
2022/04/17 03:47:01;;;;;;;3.70;2.53;;;6.60;53.80;;;;;;5134584;27;20599;-74
2022/04/17 03:49:27;;;;;;;4.10;2.63;;;6.70;54.00;;;;;;5136428;27;20478;-74
2022/04/17 03:51:53;;;;;;;7.50;3.08;;;6.60;54.10;;;;;;5155922;27;20026;-75
2022/04/17 03:54:19;;;;;;;5.85;3.00;;;6.60;54.20;;;;;;5156332;27;20027;-75
2022/04/17 03:56:47;;;;;;;3.40;2.30;;;6.60;54.00;;;;;;5135551;27;20095;-75
2022/04/17 03:59:13;;;;;;;4.68;2.80;;;6.60;53.90;;;;;;5126695;27;20489;-74
2022/04/17 04:01:39;;;;;;;4.50;2.63;;;6.60;53.90;;;;;;5155835;27;20106;-74
2022/04/17 04:04:06;;;;;;;5.63;2.97;;;6.50;53.80;;;;;;5137623;27;20025;-75
2022/04/17 04:06:33;;;;;;;7.00;3.28;;;6.50;53.80;;;;;;5137549;27;20427;-75
2022/04/17 04:08:59;;;;;;;4.00;2.47;;;6.50;54.00;;;;;;5156178;27;20075;-75
2022/04/17 04:11:24;;;;;;;4.07;2.67;;;6.50;54.00;;;;;;5137522;27;20031;-74
2022/04/17 04:13:50;;;;;;;4.88;2.67;;;6.50;53.90;;;;;;5155939;27;20103;-75
2022/04/17 04:16:16;;;;;;;4.85;3.22;;;6.40;53.80;;;;;;5155699;27;20019;-75
2022/04/17 04:18:42;;;;;;;4.45;2.67;;;6.40;53.90;;;;;;5155874;27;20023;-74
2022/04/17 04:21:07;;;;;;;4.88;2.70;;;6.40;54.00;;;;;;5137310;27;20061;-76
2022/04/17 04:23:34;;;;;;;6.03;3.00;;;6.40;53.90;;;;;;5137302;27;20058;-75
2022/04/17 04:26:00;;;;;;;5.28;2.80;;;6.40;54.00;;;;;;5155820;27;20019;-75
2022/04/17 04:28:33;;;;;;;4.25;2.60;;;6.40;54.10;;;;;;5155668;27;20026;-75
2022/04/17 04:31:11;;;;;;;6.82;2.80;;;6.40;54.00;;;;;;5092790;28;20063;-75
2022/04/17 04:33:38;;;;;;;5.97;3.70;;;6.30;54.20;;;;;;5097147;28;20019;-74
2022/04/17 04:36:06;;;;;;;3.58;2.22;;;6.30;54.20;;;;;;5126255;27;20035;-75
2022/04/17 04:38:33;;;;;;;4.20;2.45;;;6.30;54.30;;;;;;5134898;27;20034;-75
2022/04/17 04:41:00;;;;;;;4.85;2.75;;;6.30;54.30;;;;;;5119432;27;20043;-74
2022/04/17 04:43:27;;;;;;;7.13;2.80;;;6.30;54.20;;;;;;5113838;28;20027;-75
2022/04/17 04:46:08;;;;;;;3.58;2.47;;;6.30;54.30;;;;;;5095840;28;20588;-75
2022/04/17 04:51:22;;;;;;;3.97;2.60;;;6.40;54.50;;;;;;5113349;28;20034;-75
2022/04/17 04:53:49;;;;;;;7.57;3.10;;;6.40;54.50;;;;;;5113831;28;20474;-75
2022/04/17 04:56:19;;;;;;;4.40;2.50;;;6.40;54.70;;;;;;5114130;28;20027;-75
2022/04/17 04:58:46;;;;;;;5.18;3.00;;;6.40;54.80;;;;;;5095334;28;20036;-75
2022/04/17 05:01:12;;;;;;;5.50;2.55;;;6.40;54.70;;;;;;5095793;28;20027;-75
2022/04/17 05:03:39;;;;;;;3.72;2.50;;;6.40;54.70;;;;;;5113670;28;20527;-75
2022/04/17 05:06:07;;;;;;;6.30;2.58;;;6.50;54.70;;;;;;5113971;28;20102;-75
2022/04/17 05:08:33;;;;;;;3.80;2.53;;;6.50;54.60;;;;;;5113595;28;20023;-75
2022/04/17 05:10:59;;;;;;;3.80;2.60;;;6.50;54.60;;;;;;5095359;28;20039;-74
2022/04/17 05:13:25;;;;;;;5.05;2.53;;;6.50;54.60;;;;;;5095514;28;20028;-74
2022/04/17 05:15:51;;;;;;;4.70;2.47;;;6.50;54.60;;;;;;5113558;28;20031;-74
2022/04/17 05:18:17;;;;;;;4.72;2.72;;;6.50;54.60;;;;;;5113815;28;20024;-75
2022/04/17 05:20:42;;;;;;;3.05;2.00;;;6.60;54.70;;;;;;5113769;28;20067;-75
2022/04/17 05:23:21;;;;;;;7.00;2.53;;;6.60;54.70;;;;;;5113800;28;20024;-75
2022/04/17 05:25:47;;;;;;;4.15;2.90;;;6.60;54.90;;;;;;5095507;28;20020;-75
2022/04/17 05:28:14;;;;;;;4.45;3.13;;;6.70;55.10;;;;;;5095391;28;20047;-75
2022/04/17 05:30:40;;;;;;;4.75;2.92;;;6.70;55.40;;;;;;5113714;28;20105;-75
2022/04/17 05:33:06;;;;;;;9.38;3.92;;;6.90;55.60;;;;;;5095429;28;20509;-75
2022/04/17 05:35:32;;;;;;;5.55;3.50;;;7.00;55.60;;;;;;5094890;28;20032;-74
2022/04/17 05:37:58;;;;;;;7.18;3.35;;;7.10;55.50;;;;;;5093318;28;20039;-74
2022/04/17 05:40:24;;;;;;;3.97;2.70;;;7.30;55.20;;;;;;5081079;28;20124;-75
2022/04/17 05:42:50;;;;;;;4.45;2.80;;;7.40;54.90;;;;;;5111421;28;20024;-75
2022/04/17 05:45:16;;;;;;;4.95;2.92;;;7.60;54.80;;;;;;5095131;28;20455;-75
2022/04/17 05:47:42;;;;;;;5.15;3.10;;;7.70;54.70;;;;;;5113791;28;20051;-75
2022/04/17 05:50:08;;;;;;;6.07;3.33;;;7.90;54.50;;;;;;5113210;28;20024;-75
2022/04/17 05:52:34;;;;;;;9.82;3.28;;;8.00;54.10;;;;;;5113420;28;20043;-75
2022/04/17 05:55:00;;;;;;;5.45;3.33;;;8.10;53.80;;;;;;5113485;28;20028;-75
2022/04/17 05:57:26;;;;;;;5.95;3.17;;;8.30;53.70;;;;;;5094311;28;20070;-74
2022/04/17 05:59:52;;;;;;;5.43;3.08;;;8.40;53.50;;;;;;5094927;28;20066;-75
2022/04/17 06:02:18;;;;;;;6.65;3.38;;;8.60;53.20;;;;;;5097035;28;20467;-75
2022/04/17 06:04:44;;;;;;;5.65;3.03;;;8.70;53.00;;;;;;5117289;28;20042;-75
2022/04/17 06:07:10;;;;;;;6.70;3.30;;;8.90;52.70;;;;;;5117067;28;20374;-75
2022/04/17 06:09:36;;;;;;;19.33;8.13;;;9.00;52.50;;;;;;5117191;28;20027;-75
2022/04/17 06:12:03;;;;;;;11.85;5.85;;;9.10;52.20;;;;;;5117400;28;20122;-75
2022/04/17 06:14:30;;;;;;;8.15;3.78;;;9.30;51.70;;;;;;5098743;28;20030;-76
2022/04/17 06:16:55;;;;;;;6.32;3.55;;;9.40;51.50;;;;;;5098533;28;20115;-75
2022/04/17 06:19:22;;;;;;;5.70;3.35;;;9.50;51.10;;;;;;5098493;28;20111;-74
2022/04/17 06:21:47;;;;;;;6.47;3.70;;;9.60;51.00;;;;;;5098684;28;20031;-75
2022/04/17 06:24:13;;;;;;;5.70;3.10;;;9.70;50.60;;;;;;5116499;28;20028;-74
2022/04/17 06:26:39;;;;;;;4.43;3.20;;;9.80;50.40;;;;;;5098579;28;20047;-75
2022/04/17 06:29:08;;;;;;;6.32;3.15;;;10.00;50.10;;;;;;5098352;28;20027;-75
2022/04/17 06:31:34;;;;;;;5.50;2.75;;;10.10;49.70;;;;;;5098360;28;20032;-75
2022/04/17 06:34:00;;;;;;;4.78;2.95;;;10.20;49.60;;;;;;5098405;28;20118;-74
2022/04/17 06:36:27;;;;;;;6.30;2.92;;;10.30;49.40;;;;;;5098304;28;20030;-75
2022/04/17 06:38:52;;;;;;;4.82;3.05;;;10.40;49.10;;;;;;5116659;28;20122;-75
2022/04/17 06:41:18;;;;;;;7.85;3.22;;;10.50;49.00;;;;;;5115972;27;20475;-75
2022/04/17 06:43:44;;;;;;;4.80;2.58;;;10.60;48.90;;;;;;5098006;28;20375;-74
2022/04/17 06:46:10;;;;;;;3.47;2.42;;;10.70;48.80;;;;;;5116144;28;20490;-74
2022/04/17 06:48:35;;;;;;;5.68;3.35;;;10.80;48.40;;;;;;5098057;28;20375;-75
2022/04/17 06:51:01;;;;;;;6.32;3.17;;;10.90;47.80;;;;;;5116365;28;20035;-75
2022/04/17 06:53:27;;;;;;;5.28;3.25;;;10.90;47.40;;;;;;5116326;28;20116;-75
2022/04/17 06:55:53;;;;;;;6.80;3.15;;;11.00;47.10;;;;;;5097973;28;20169;-75
2022/04/17 06:58:20;;;;;;;6.32;3.10;;;11.10;46.90;;;;;;5116274;28;20020;-74
2022/04/17 07:00:48;;;;;;;5.82;3.17;;;11.10;46.70;;;;;;5097800;28;20055;-75
2022/04/17 07:03:14;;;;;;;7.15;3.67;;;11.20;46.60;;;;;;5097791;28;20024;-75
2022/04/17 07:05:41;;;;;;;7.35;3.53;;;11.30;46.40;;;;;;5115956;28;20026;-75
2022/04/17 07:08:08;;;;;;;6.20;3.80;;;11.40;46.20;;;;;;5097749;28;20026;-75
2022/04/17 07:10:37;;;;;;;5.40;3.75;;;11.50;46.20;;;;;;5097240;28;20118;-75
2022/04/17 07:13:04;;;;;;;5.95;3.40;;;11.50;46.00;;;;;;5097023;28;20027;-75
2022/04/17 07:15:30;;;;;;;8.05;3.72;;;11.60;45.80;;;;;;5115858;28;20028;-75
2022/04/17 07:17:56;;;;;;;6.18;3.88;;;11.70;45.60;;;;;;5115571;28;20098;-73
2022/04/17 07:20:24;;;;;;;7.88;4.22;;;11.80;45.80;;;;;;5115673;28;20058;-75
2022/04/17 07:22:50;;;;;;;8.85;4.05;;;11.90;45.50;;;;;;5115465;28;20054;-76
2022/04/17 07:25:17;;;;;;;7.32;4.20;;;12.00;45.50;;;;;;5115406;28;20507;-75
2022/04/17 07:27:45;;;;;;;8.77;4.63;;;12.10;45.10;;;;;;5097354;28;20459;-75
2022/04/17 07:30:24;;;;;;;6.88;4.07;;;12.10;45.10;;;;;;5097333;28;20224;-75
2022/04/17 07:32:52;;;;;;;14.20;4.72;;;12.20;44.80;;;;;;5097282;28;20116;-76
2022/04/17 07:35:19;;;;;;;9.43;4.80;;;12.30;44.80;;;;;;5115417;28;20023;-75
2022/04/17 07:37:50;;;;;;;8.00;4.60;;;12.30;44.90;;;;;;5097086;28;20042;-74
2022/04/17 07:40:19;;;;;;;9.70;5.20;;;12.30;44.80;;;;;;5102995;28;20062;-73
2022/04/17 07:42:45;;;;;;;12.13;6.40;;;12.40;44.80;;;;;;5132306;27;20034;-73
2022/04/17 07:45:13;;;;;;;9.15;5.25;;;12.40;44.70;;;;;;5135713;27;20072;-72
2022/04/17 07:47:39;;;;;;;13.90;6.65;;;12.40;44.90;;;;;;5127380;27;20038;-73
2022/04/17 07:50:07;;;;;;;11.95;7.10;;;12.50;44.70;;;;;;5135641;27;20027;-75
2022/04/17 07:52:36;;;;;;;14.63;7.13;;;12.50;44.60;;;;;;5134300;27;20031;-75
2022/04/17 07:55:05;;;;;;;15.70;6.78;;;12.50;44.60;;;;;;5133811;27;20088;-76
2022/04/17 07:57:56;;;;;;;25.67;7.65;;;12.60;44.50;;;;;;5135329;27;20023;-75
2022/04/17 08:00:22;;;;;;;10.80;6.38;;;12.60;44.00;;;;;;5134411;27;20036;-75
2022/04/17 08:03:49;;;;;;;16.67;7.78;;;12.60;44.00;;;;;;5128260;27;20474;-75
2022/04/17 08:05:44;;;;;;;19.45;7.82;;;12.60;43.50;;;;;;5110402;27;20107;-75
2022/04/17 08:08:10;;;;;;;13.35;8.05;;;12.60;43.20;;;;;;5135381;27;20025;-75
2022/04/17 08:10:37;;;;;;;13.70;7.13;;;12.60;42.90;;;;;;5116547;27;20031;-75
2022/04/17 08:13:03;;;;;;;12.77;7.30;;;12.60;42.90;;;;;;5116879;27;20454;-75
2022/04/17 08:15:29;;;;;;;16.98;7.45;;;12.70;43.00;;;;;;5116717;27;20034;-75
2022/04/17 08:17:55;;;;;;;10.07;6.60;;;12.70;43.30;;;;;;5116825;27;20396;-74
2022/04/17 08:20:21;;;;;;;10.55;6.18;;;12.80;43.00;;;;;;5116326;27;20033;-75
2022/04/17 08:22:47;;;;;;;11.13;5.47;;;12.80;42.70;;;;;;5116621;27;20084;-75
2022/04/17 08:25:14;;;;;;;9.68;5.68;;;12.90;42.40;;;;;;5134008;27;20459;-75
2022/04/17 08:27:47;;;;;;;11.75;4.85;;;13.00;42.20;;;;;;5116537;27;20034;-75
2022/04/17 08:30:18;;;;;;;8.73;4.80;;;13.10;42.10;;;;;;5116210;27;20028;-75
2022/04/17 08:32:44;;;;;;;8.38;4.93;;;13.30;42.30;;;;;;5116507;27;20269;-75
2022/04/17 08:35:09;;;;;;;7.10;4.63;;;13.50;41.80;;;;;;5116385;27;20535;-75
2022/04/17 08:37:35;;;;;;;8.25;5.20;;;13.70;40.80;;;;;;5134315;27;20023;-75
2022/04/17 08:40:03;;;;;;;5.68;4.25;;;13.90;40.50;;;;;;5129022;27;20078;-75
2022/04/17 08:42:31;;;;;;;9.00;4.55;;;14.10;40.70;;;;;;5134802;27;20024;-75
2022/04/17 08:44:57;;;;;;;7.47;4.25;;;14.40;40.50;;;;;;5133475;27;20490;-75
2022/04/17 08:47:24;;;;;;;7.18;4.93;;;14.70;40.70;;;;;;5133463;27;20114;-75
2022/04/17 08:49:50;;;;;;;4.00;3.22;;;15.00;40.10;;;;;;5134689;27;20049;-75
2022/04/17 08:52:17;;;;;;;6.80;3.53;;;15.30;39.80;;;;;;5134645;27;20505;-74
2022/04/17 08:54:44;;;;;;;7.35;3.80;;;15.60;38.70;;;;;;5134254;27;20033;-73
2022/04/17 08:57:11;;;;;;;5.85;3.70;;;15.90;38.20;;;;;;5129480;27;20023;-73
2022/04/17 08:59:37;;;;;;;5.50;3.78;;;16.20;36.90;;;;;;5117850;27;20027;-73
2022/04/17 09:02:10;;;;;;;8.38;3.60;;;16.40;36.40;;;;;;5116057;28;20526;-73
2022/04/17 09:04:37;;;;;;;8.32;4.10;;;16.60;35.20;;;;;;5115915;27;20023;-73
2022/04/17 09:07:09;;;;;;;6.57;3.17;;;16.80;35.30;;;;;;5134079;27;20038;-73
2022/04/17 09:09:51;;;;;;;7.00;3.72;;;17.00;34.20;;;;;;5134186;27;20478;-73
2022/04/17 09:12:25;;;;;;;4.47;2.65;;;17.10;33.50;;;;;;5115647;27;20474;-73
2022/04/17 09:14:55;;;;;;;5.28;3.33;;;17.20;33.50;;;;;;5115136;28;20486;-74
2022/04/17 09:17:29;;;;;;;6.05;3.53;;;17.20;33.70;;;;;;5114413;28;20033;-74
2022/04/17 09:19:55;;;;;;;6.90;3.90;;;17.20;31.60;;;;;;5115523;28;20110;-74
2022/04/17 09:22:21;;;;;;;4.35;2.83;;;17.20;31.50;;;;;;5133918;28;20448;-74
2022/04/17 09:24:46;;;;;;;4.80;2.78;;;17.10;31.80;;;;;;5133683;28;20030;-74
2022/04/17 09:27:12;;;;;;;5.50;3.70;;;17.00;31.00;;;;;;5133576;28;20070;-74
2022/04/17 09:29:39;;;;;;;3.85;2.47;;;17.00;31.40;;;;;;5115711;28;20519;-74
2022/04/17 09:32:15;;;;;;;3.63;2.47;;;16.90;31.10;;;;;;5133496;28;20023;-74
2022/04/17 09:34:45;;;;;;;4.40;2.65;;;16.90;30.30;;;;;;5115711;28;20024;-74
2022/04/17 09:37:18;;;;;;;4.43;2.60;;;16.90;30.00;;;;;;5117181;27;20030;-74
2022/04/17 09:39:45;;;;;;;3.50;2.47;;;16.80;30.40;;;;;;5119446;27;20055;-73
2022/04/17 09:42:12;;;;;;;4.32;2.30;;;16.80;31.30;;;;;;5119710;27;20031;-74
2022/04/17 09:44:48;;;;;;;3.70;2.65;;;16.90;31.50;;;;;;5119722;27;20076;-74
2022/04/17 09:47:20;;;;;;;8.15;2.55;;;17.00;31.80;;;;;;5119085;27;20023;-74
2022/04/17 09:49:57;;;;;;;5.45;2.60;;;17.10;31.70;;;;;;5114572;27;20027;-74
2022/04/17 09:52:31;;;;;;;4.25;2.42;;;17.40;32.00;;;;;;5099449;28;20023;-74
2022/04/17 09:54:58;;;;;;;;;;;17.60;31.30;;;;;;5106665;27;20023;-74
2022/04/17 09:57:30;;;;;;;7.82;2.50;;;17.80;33.70;;;;;;5137956;27;20354;-75
2022/04/17 09:59:57;;;;;;;3.75;2.20;;;17.90;30.00;;;;;;5137561;27;20080;-74
2022/04/17 10:02:25;;;;;;;3.72;2.08;;;18.00;30.00;;;;;;5119282;27;20031;-74
2022/04/17 10:04:51;;;;;;;4.88;2.45;;;18.10;29.60;;;;;;5138101;27;20028;-74
2022/04/17 10:07:19;;;;;;;5.88;2.55;;;18.20;29.00;;;;;;5135489;27;20042;-74
2022/04/17 10:09:49;;;;;;;5.05;2.33;;;18.30;29.00;;;;;;5119033;27;20031;-75
2022/04/17 10:12:19;;;;;;;3.75;2.30;;;18.30;28.30;;;;;;5119028;27;20024;-74
2022/04/17 10:14:48;;;;;;;4.32;2.75;;;18.30;28.10;;;;;;5119170;27;20080;-75
2022/04/17 10:17:14;;;;;;;3.50;2.20;;;18.40;28.10;;;;;;5118220;27;20023;-74
2022/04/17 10:19:42;;;;;;;3.78;2.20;;;18.40;28.70;;;;;;5118748;27;20023;-74
2022/04/17 10:22:11;;;;;;;4.22;2.45;;;18.40;28.80;;;;;;5137125;27;20106;-76
2022/04/17 10:24:41;;;;;;;3.55;2.03;;;18.40;28.30;;;;;;5118964;27;20486;-74
2022/04/17 10:27:13;;;;;;;4.47;1.92;;;18.40;27.50;;;;;;5118487;27;20027;-75
2022/04/17 10:29:43;;;;;;;2.78;1.85;;;18.30;27.50;;;;;;5136947;27;20027;-75
2022/04/17 10:32:30;;;;;;;3.78;1.95;;;18.20;27.40;;;;;;5118716;27;20040;-74
2022/04/17 10:35:14;;;;;;;3.35;1.92;;;18.20;28.00;;;;;;5136225;27;20489;-74
2022/04/17 10:38:21;;;;;;;3.70;2.30;;;18.20;28.40;;;;;;5136877;27;20524;-75
2022/04/17 10:41:02;;;;;;;3.00;1.77;;;18.20;28.40;;;;;;5119005;27;20055;-75
2022/04/17 10:43:46;;;;;;;4.05;1.73;;;18.30;28.10;;;;;;5116477;27;20069;-74
2022/04/17 10:46:15;;;;;;;2.15;1.27;;;18.40;27.70;;;;;;5118433;27;20027;-74
2022/04/17 10:48:51;;;;;;;2.47;1.50;;;18.40;27.40;;;;;;5116632;27;20031;-74
2022/04/17 10:51:24;;;;;;;5.35;1.80;;;18.40;27.30;;;;;;5148179;27;20042;-74
2022/04/17 10:54:06;;;;;;;2.75;1.50;;;18.50;27.40;;;;;;5136628;27;20015;-74
2022/04/17 10:56:41;;;;;;;2.15;1.65;;;18.60;27.70;;;;;;5136535;27;20033;-74
2022/04/17 10:59:17;;;;;;;4.22;1.42;;;18.80;27.00;;;;;;5136565;27;20027;-74
2022/04/17 11:01:48;;;;;;;3.58;2.00;;;19.00;26.70;;;;;;5118366;27;20446;-74
2022/04/17 11:04:27;;;;;;;2.88;1.60;;;19.10;26.40;;;;;;5118247;27;20426;-74
2022/04/17 11:07:05;;;;;;;4.25;1.67;;;19.20;26.60;;;;;;5117977;27;20031;-73
2022/04/17 11:09:33;;;;;;;4.25;2.13;;;19.30;26.60;;;;;;5114702;27;20402;-73
2022/04/17 11:12:07;;;;;;;3.75;1.95;;;19.30;26.60;;;;;;5109124;27;20055;-74
2022/04/17 11:14:33;;;;;;;3.80;1.95;;;19.40;26.80;;;;;;5097855;28;20036;-75
2022/04/17 11:17:08;;;;;;;4.03;1.83;;;19.50;26.40;;;;;;5107817;27;20439;-74
2022/04/17 11:19:36;;;;;;;1.80;1.33;;;19.60;26.30;;;;;;5136482;27;20106;-73
2022/04/17 11:22:04;;;;;;;5.05;2.15;;;19.70;26.10;;;;;;5136177;27;20027;-75
2022/04/17 11:24:54;;;;;;;2.90;1.63;;;19.80;26.10;;;;;;5139991;27;20039;-74
2022/04/17 11:28:03;;;;;;;2.63;1.85;;;19.90;26.20;;;;;;5097249;28;20463;-74
2022/04/17 11:30:31;;;;;;;3.35;1.95;;;20.00;25.70;;;;;;5087666;27;20363;-74
2022/04/17 11:32:59;;;;;;;3.35;1.70;;;20.00;25.00;;;;;;5126988;27;20323;-74
2022/04/17 11:35:26;;;;;;;4.22;1.80;;;19.90;24.70;;;;;;5117554;27;20027;-75
2022/04/17 11:38:03;;;;;;;2.28;1.52;;;19.80;25.10;;;;;;5135663;27;20490;-74
2022/04/17 11:40:32;;;;;;;2.17;1.55;;;19.70;25.50;;;;;;5124921;27;20104;-73
2022/04/17 11:43:07;;;;;;;3.05;1.80;;;19.70;25.80;;;;;;5114679;28;20477;-73
2022/04/17 11:45:33;;;;;;;3.00;1.95;;;19.70;25.20;;;;;;5097328;28;20347;-73
2022/04/17 11:48:07;;;;;;;5.50;1.40;;;19.70;25.50;;;;;;5096965;28;20024;-73
2022/04/17 11:50:34;;;;;;;2.50;1.30;;;19.80;24.70;;;;;;5094574;28;20031;-74
2022/04/17 11:53:02;;;;;;;4.68;2.00;;;19.80;24.70;;;;;;5094384;28;20390;-74
2022/04/17 11:55:30;;;;;;;2.78;1.55;;;19.90;25.20;;;;;;5096190;28;20068;-73
2022/04/17 11:57:57;;;;;;;2.75;1.67;;;19.90;25.30;;;;;;5113158;27;20456;-73
2022/04/17 12:00:24;;;;;;;4.97;2.13;;;19.90;25.30;;;;;;5113352;28;20031;-74
2022/04/17 12:03:05;;;;;;;2.95;1.95;;;19.80;25.00;;;;;;5093260;28;20149;-75
2022/04/17 12:05:32;;;;;;;12.30;3.10;;;19.80;25.00;;;;;;5076310;28;20031;-74
2022/04/17 12:08:09;;;;;;;4.03;2.22;;;19.80;24.90;;;;;;5076264;28;20035;-73
2022/04/17 12:10:35;;;;;;;3.00;2.05;;;19.70;24.80;;;;;;5075946;28;20095;-75
2022/04/17 12:13:15;;;;;;;3.33;1.67;;;19.70;25.20;;;;;;5076132;28;20031;-76
2022/04/17 12:15:42;;;;;;;2.33;1.55;;;19.60;24.90;;;;;;5087709;28;20154;-75
2022/04/17 12:18:07;;;;;;;4.03;1.88;;;19.60;25.20;;;;;;5094662;28;20079;-74
2022/04/17 12:20:33;;;;;;;2.72;1.75;;;19.50;25.20;;;;;;5075959;28;20479;-74
2022/04/17 12:22:59;;;;;;;4.30;2.17;;;19.50;25.00;;;;;;5094260;28;20031;-75
2022/04/17 12:25:26;;;;;;;2.90;1.83;;;19.50;24.70;;;;;;5075990;28;20035;-76
2022/04/17 12:27:54;;;;;;;7.38;2.30;;;19.50;24.40;;;;;;5093952;28;20072;-75
2022/04/17 12:30:25;;;;;;;2.55;1.63;;;19.50;24.60;;;;;;5075700;28;20125;-74
2022/04/17 12:32:55;;;;;;;2.00;1.60;;;19.40;24.70;;;;;;5093239;28;20051;-75
2022/04/17 12:35:35;;;;;;;3.58;1.77;;;19.50;25.10;;;;;;5114387;28;20294;-74
2022/04/17 12:38:10;;;;;;;4.47;1.65;;;19.50;25.30;;;;;;5114428;28;20107;-75
2022/04/17 12:40:44;;;;;;;3.85;1.90;;;19.70;25.20;;;;;;5106893;27;20185;-74
2022/04/17 12:43:18;;;;;;;3.13;1.75;;;19.80;24.90;;;;;;5116507;27;20027;-74
2022/04/17 12:46:04;;;;;;;3.58;1.80;;;20.00;25.10;;;;;;5116440;27;20079;-75
2022/04/17 12:48:35;;;;;;;3.58;1.58;;;20.10;24.40;;;;;;5116675;27;20031;-75
2022/04/17 12:51:03;;;;;;;3.22;1.60;;;20.20;24.50;;;;;;5134732;27;20163;-74
2022/04/17 12:53:40;;;;;;;2.40;1.58;;;20.30;24.20;;;;;;5116519;27;20038;-74
2022/04/17 12:56:08;;;;;;;2.28;1.20;;;20.30;24.00;;;;;;5134667;27;20023;-74
2022/04/17 12:58:54;;;;;;;2.88;1.85;;;20.30;23.80;;;;;;5116139;27;20106;-74
2022/04/17 13:01:22;;;;;;;2.85;1.60;;;20.30;23.70;;;;;;5134559;27;20038;-74
2022/04/17 13:03:49;;;;;;;2.17;1.70;;;20.40;24.00;;;;;;5134647;27;20023;-74
2022/04/17 13:06:22;;;;;;;3.58;1.95;;;20.40;24.20;;;;;;5116225;27;20023;-74
2022/04/17 13:09:02;;;;;;;6.03;2.42;;;20.50;24.70;;;;;;5134548;27;20027;-74